x

Buzzards Bay, Ma (buzm3) Weather Station

2:00 - Sat 23rd Jul 2016 All times are EDT. -4 hours from GMT.

  • Wind
    20mph, 21mph gusts
  • Aire Temp 74°f
  • Sea Pressure 1008.3mb
  • Buzzards Bay, Ma
  • Buzzards Bay, Ma

More Historic Weather Station data

Upgrade to MSW Pro to gain access to the past 30 days of data for over 8000 Wavebouys and Weather Stations around the globe.

Join Pro

Comparision Forecast

View Surf forecast
   
sáb 07/23 2:00 20 21 mph 1008.3mb 74f
1:00 10 11 mph 1008.5mb 72f
12:00 17 18 mph 1008.8mb 73f
11:00 13 14 mph 1008.7mb 75f
10:00 11 13 mph 1008.6mb 71f
9:00 16 17 mph 1008.5mb 72f
8:00 10 11 mph 1008.9mb 71f
7:00 9 10 mph 1008.8mb 71f
6:00 15
mph
1008.5mb 71f
5:00 14 16 mph 1008.4mb 69f
4:00 16 17 mph 1008.3mb 71f
3:00 10 11 mph 1008.8mb 74f
2:00 14 16 mph 1009.6mb 73f
1:00 11 14 mph 1009.6mb 70f
12:00 17 18 mph 1009.4mb 75f
vie 07/22 11:00 15 16 mph 1009.9mb 73f
10:00 18 20 mph 1009.7mb 73f
9:00 21 23 mph 1009.4mb 73f
8:00 26 28 mph 1009mb 73f
7:00 30 33 mph 1009mb 73f
6:00 31 33 mph 1009.5mb 73f
5:00 30 32 mph 1010mb 73f
4:00 31 33 mph 1010.2mb 73f
3:00 32 33 mph 1010.8mb 73f
2:00 30 33 mph 1011.3mb 73f
1:00 30 31 mph 1012.1mb 73f
12:00 25 29 mph 1012.7mb 72f
11:00 26 29 mph 1013.3mb 72f
10:00 28 29 mph 1013.4mb 72f
9:00 24 25 mph 1014.2mb 71f
8:00 25 29 mph 1014.7mb 71f
7:00 24 28 mph 1015.4mb 71f
6:00 26 28 mph 1015.3mb 71f
5:00 26 29 mph 1015.5mb 71f
4:00 22 23 mph 1015.6mb 71f
3:00 22 23 mph 1016.1mb 71f
2:00 18 20 mph 1016.4mb 71f
1:00 17 18 mph 1016.7mb 71f
12:00 18 20 mph 1017.4mb 71f
jue 07/21 11:00 16 18 mph 1017.6mb 70f
10:00 18 20 mph 1018.1mb 71f
9:00 20 21 mph 1017.8mb 72f
8:00 23 25 mph 1017.6mb 72f
7:00 24 25 mph 1017.7mb 72f
6:00 25 28 mph 1018.2mb 72f
5:00 24 26 mph 1018.6mb 72f
4:00 22 24 mph 1018.8mb 72f
3:00 20 22 mph 1019.1mb 71f
2:00 17
mph
1019.6mb 70f
1:00 16
mph
1020.2mb 70f
12:00 13 14 mph 1021.3mb 70f
11:00 10
mph
1021.3mb 70f
10:00 10 11 mph 1021.3mb 70f
9:00 7 8 mph 1021.5mb 68f
8:00 6 7 mph 1021.8mb 69f
7:00 8
mph
1021.7mb 69f
6:00 9
mph
1021.3mb 69f
5:00 9
mph
1020.7mb 69f
4:00 6 7 mph 1020.5mb 68f
3:00 8 9 mph 1021mb 69f
2:00 7 8 mph 1021.1mb 69f
1:00 10
mph
1021.3mb 69f
12:00 11 13 mph 1021.4mb 69f
mié 07/20 11:00 16 17 mph 1021.5mb 71f
10:00 21 22 mph 1021.3mb 71f
9:00 20 21 mph 1020.7mb 71f
8:00 22 24 mph 1020.2mb 71f
7:00 16 17 mph 1020.1mb 71f
6:00 17 18 mph 1020mb 71f
5:00 21 23 mph 1020.3mb 71f
4:00 20 21 mph 1020.8mb 71f
3:00 20 21 mph 1021.4mb 71f
2:00 16
mph
1021.7mb 70f
1:00 11 13 mph 1022.1mb 69f
12:00 10
mph
1022.9mb 69f
11:00 9
mph
1023.5mb 69f
10:00 6 7 mph 1023.6mb 68f
9:00 5
mph
1023.7mb 68f
8:00 9 10 mph 1023.3mb 67f
7:00 8 10 mph 1022.5mb 67f
6:00 9 10 mph 1022.1mb 67f
5:00 8 10 mph 1021.7mb 69f
4:00 8
mph
1021.7mb 69f
3:00 8
mph
1021.5mb 71f
2:00 6
mph
1021.2mb 69f
1:00 3 5 mph 1021.2mb 69f
12:00 2
mph
1020.9mb 70f
mar 07/19 11:00 5
mph
1020.9mb 70f
10:00 9
mph
1020.7mb 71f
9:00 10 11 mph 1020mb 71f
8:00 11 13 mph 1018.9mb 72f